createdAt,value
2023-01-19T00:00:25.399Z,96248.41
2023-01-19T00:02:53.158Z,96236.13
2023-01-19T00:05:20.165Z,96238.13
2023-01-19T00:07:47.015Z,96256.38
2023-01-19T00:10:14.034Z,96258.91
2023-01-19T00:12:40.971Z,96261.50
2023-01-19T00:15:08.472Z,96256.31
2023-01-19T00:17:35.417Z,96262.53
2023-01-19T00:20:02.360Z,96268.47
2023-01-19T00:22:30.692Z,96264.59
2023-01-19T00:24:57.734Z,96262.22
2023-01-19T00:27:24.989Z,96270.94
2023-01-19T00:29:51.909Z,96269.28
2023-01-19T00:32:20.372Z,96272.22
2023-01-19T00:34:49.657Z,96271.56
2023-01-19T00:37:17.509Z,96274.56
2023-01-19T00:39:45.139Z,96263.84
2023-01-19T00:42:31.565Z,96270.09
2023-01-19T00:44:58.513Z,96266.78
2023-01-19T00:47:25.498Z,96270.94
2023-01-19T00:49:52.527Z,96265.13
2023-01-19T00:52:19.705Z,96271.16
2023-01-19T00:54:46.635Z,96275.63
2023-01-19T00:57:14.841Z,96279.47
2023-01-19T00:59:41.752Z,96276.13
2023-01-19T01:02:08.842Z,96273.13
2023-01-19T01:04:35.979Z,96272.28
2023-01-19T01:07:03.436Z,96265.97
2023-01-19T01:09:30.655Z,96276.13
2023-01-19T01:11:57.513Z,96264.28
2023-01-19T01:14:26.889Z,96263.38
2023-01-19T01:16:53.923Z,96247.66
2023-01-19T01:19:24.503Z,96261.28
2023-01-19T01:21:51.416Z,96247.13
2023-01-19T01:24:18.935Z,96258.47
2023-01-19T01:26:46.067Z,96257.75
2023-01-19T01:29:13.073Z,96253.06
2023-01-19T01:31:40.172Z,96257.00
2023-01-19T01:34:07.484Z,96252.13
2023-01-19T01:36:35.578Z,96239.31
2023-01-19T01:39:02.550Z,96244.09
2023-01-19T01:41:29.610Z,96262.69
2023-01-19T01:44:01.895Z,96252.22
2023-01-19T01:46:31.779Z,96260.31
2023-01-19T01:49:09.676Z,96252.13
2023-01-19T01:51:44.044Z,96251.69
2023-01-19T01:54:21.452Z,96269.88
2023-01-19T01:56:51.457Z,96270.00
2023-01-19T01:59:26.283Z,96257.31
2023-01-19T02:02:14.820Z,96265.72
2023-01-19T02:05:04.286Z,96261.19
2023-01-19T02:08:05.137Z,96263.22
2023-01-19T02:10:52.018Z,96272.38
2023-01-19T02:13:22.477Z,96256.97
2023-01-19T02:15:55.111Z,96289.00
2023-01-19T02:18:24.641Z,96283.41
2023-01-19T02:21:11.661Z,96279.13
2023-01-19T02:23:41.496Z,96292.84
2023-01-19T02:26:10.697Z,96290.81
2023-01-19T02:28:43.489Z,96283.00
2023-01-19T02:31:11.344Z,96274.25
2023-01-19T02:33:38.684Z,96271.91
2023-01-19T02:36:08.231Z,96274.06
2023-01-19T02:38:36.666Z,96277.47
2023-01-19T02:41:06.368Z,96266.88
2023-01-19T02:43:33.800Z,96281.13
2023-01-19T02:46:00.763Z,96285.94
2023-01-19T02:48:27.770Z,96277.28
2023-01-19T02:51:04.252Z,96265.53
2023-01-19T02:53:43.536Z,96277.19
2023-01-19T02:56:42.377Z,96281.31
2023-01-19T02:59:31.743Z,96277.88
2023-01-19T03:02:26.679Z,96277.53
2023-01-19T03:05:08.432Z,96280.69
2023-01-19T03:08:03.957Z,96296.06
2023-01-19T03:10:36.676Z,96285.34
2023-01-19T03:13:11.267Z,96285.84
2023-01-19T03:15:58.128Z,96277.50
2023-01-19T03:18:29.642Z,96271.28
2023-01-19T03:21:01.582Z,96280.03
2023-01-19T03:23:34.050Z,96295.63
2023-01-19T03:26:02.262Z,96287.28
2023-01-19T03:28:30.755Z,96283.94
2023-01-19T03:31:10.800Z,96294.59
2023-01-19T03:33:40.525Z,96287.31
2023-01-19T03:36:16.679Z,96298.72
2023-01-19T03:38:46.513Z,96295.22
2023-01-19T03:41:16.792Z,96290.41
2023-01-19T03:43:45.839Z,96303.06
2023-01-19T03:46:17.345Z,96303.81
2023-01-19T03:48:46.906Z,96293.09
2023-01-19T03:51:14.582Z,96289.66
2023-01-19T03:53:42.090Z,96307.41
2023-01-19T03:56:23.038Z,96306.59
2023-01-19T03:58:50.511Z,96301.78
2023-01-19T04:01:18.759Z,96303.94
2023-01-19T04:03:47.214Z,96302.34
2023-01-19T04:06:14.713Z,96311.03
2023-01-19T04:08:41.821Z,96312.31
2023-01-19T04:11:08.677Z,96306.06
2023-01-19T04:13:36.167Z,96319.84
2023-01-19T04:16:04.188Z,96319.03
2023-01-19T04:18:34.641Z,96317.19
2023-01-19T04:21:07.537Z,96309.28
2023-01-19T04:23:35.416Z,96296.19
2023-01-19T04:26:08.025Z,96304.31
2023-01-19T04:28:37.213Z,96311.59
2023-01-19T04:31:05.779Z,96308.31
2023-01-19T04:33:33.431Z,96311.78
2023-01-19T04:36:00.770Z,96312.63
2023-01-19T04:38:27.869Z,96301.38
2023-01-19T04:40:55.399Z,96304.97
2023-01-19T04:43:23.465Z,96314.91
2023-01-19T04:45:50.394Z,96313.69
2023-01-19T04:48:18.614Z,96310.84
2023-01-19T04:50:45.934Z,96316.47
2023-01-19T04:53:13.929Z,96305.84
2023-01-19T04:55:41.226Z,96320.34
2023-01-19T04:58:08.316Z,96328.97
2023-01-19T05:00:35.467Z,96323.16
2023-01-19T05:03:02.732Z,96329.81
2023-01-19T05:05:30.583Z,96317.59
2023-01-19T05:07:57.565Z,96322.72
2023-01-19T05:10:24.561Z,96324.91
2023-01-19T05:12:51.986Z,96330.06
2023-01-19T05:15:19.036Z,96325.31
2023-01-19T05:17:46.746Z,96321.25
2023-01-19T05:20:16.188Z,96317.38
2023-01-19T05:22:48.547Z,96302.81
2023-01-19T05:25:15.492Z,96314.72
2023-01-19T05:27:42.556Z,96297.03
2023-01-19T05:30:10.297Z,96313.69
2023-01-19T05:32:37.242Z,96311.78
2023-01-19T05:35:04.449Z,96323.00
2023-01-19T05:37:32.733Z,96322.59
2023-01-19T05:39:59.678Z,96326.31
2023-01-19T05:42:32.023Z,96327.97
2023-01-19T05:45:00.255Z,96337.16
2023-01-19T05:47:29.481Z,96334.47
2023-01-19T05:49:56.587Z,96336.72
2023-01-19T05:52:25.031Z,96333.00
2023-01-19T05:54:52.251Z,96347.63
2023-01-19T05:57:19.228Z,96344.66
2023-01-19T05:59:46.416Z,96339.66
2023-01-19T06:02:13.432Z,96303.81
2023-01-19T06:04:40.541Z,96333.34
2023-01-19T06:07:07.512Z,96341.22
2023-01-19T06:09:34.457Z,96333.34
2023-01-19T06:12:01.527Z,96329.91
2023-01-19T06:14:28.443Z,96335.00
2023-01-19T06:16:55.353Z,96338.28
2023-01-19T06:19:22.291Z,96340.38
2023-01-19T06:21:52.347Z,96337.06
2023-01-19T06:24:19.815Z,96342.81
2023-01-19T06:26:49.769Z,96344.91
2023-01-19T06:29:16.897Z,96353.63
2023-01-19T06:31:44.135Z,96349.00
2023-01-19T06:34:11.452Z,96364.38
2023-01-19T06:36:38.824Z,96369.19
2023-01-19T06:39:06.264Z,96366.41
2023-01-19T06:41:34.098Z,96378.06
2023-01-19T06:44:01.614Z,96368.25
2023-01-19T06:46:29.068Z,96377.28
2023-01-19T06:48:56.049Z,96369.00
2023-01-19T06:51:23.491Z,96373.13
2023-01-19T06:53:50.496Z,96369.41
2023-01-19T06:56:17.418Z,96364.38
2023-01-19T06:58:47.217Z,96371.34
2023-01-19T07:01:14.452Z,96372.59
2023-01-19T07:03:41.390Z,96379.75
2023-01-19T07:06:08.607Z,96365.03
2023-01-19T07:08:36.911Z,96375.63
2023-01-19T07:11:24.772Z,96369.59
2023-01-19T07:13:55.484Z,96398.53
2023-01-19T07:16:23.731Z,96390.09
2023-01-19T07:18:51.049Z,96391.56
2023-01-19T07:21:18.530Z,96396.22
2023-01-19T07:23:49.075Z,96409.41
2023-01-19T07:26:18.677Z,96390.47
2023-01-19T07:28:47.369Z,96415.97
2023-01-19T07:31:16.398Z,96423.84
2023-01-19T07:33:43.775Z,96387.09
2023-01-19T07:36:11.630Z,96409.06
2023-01-19T07:38:38.953Z,96377.53
2023-01-19T07:41:08.581Z,96403.00
2023-01-19T07:43:37.276Z,96406.00
2023-01-19T07:46:07.167Z,96375.56
2023-01-19T07:48:35.854Z,96391.34
2023-01-19T07:51:12.961Z,96402.56
2023-01-19T07:53:42.136Z,96404.00
2023-01-19T07:56:10.235Z,96419.09
2023-01-19T07:58:38.982Z,96399.91
2023-01-19T08:01:13.408Z,96410.16
2023-01-19T08:03:41.370Z,96388.31
2023-01-19T08:06:19.736Z,96398.22
2023-01-19T08:08:47.213Z,96409.44
2023-01-19T08:11:16.041Z,96410.41
2023-01-19T08:13:43.763Z,96418.78
2023-01-19T08:16:10.855Z,96402.41
2023-01-19T08:18:38.470Z,96378.06
2023-01-19T08:21:05.884Z,96426.94
2023-01-19T08:23:34.469Z,96413.53
2023-01-19T08:26:27.562Z,96410.69
2023-01-19T08:28:55.593Z,96418.38
2023-01-19T08:31:25.018Z,96412.81
2023-01-19T08:33:52.924Z,96405.81
2023-01-19T08:36:21.590Z,96408.66
2023-01-19T08:38:48.839Z,96424.13
2023-01-19T08:41:19.416Z,96430.06
2023-01-19T08:43:46.772Z,96413.94
2023-01-19T08:46:17.624Z,96400.16
2023-01-19T08:48:51.131Z,96419.53
2023-01-19T08:51:18.781Z,96404.19
2023-01-19T14:46:19.702Z,96315.53
2023-01-19T14:48:48.971Z,96311.16
2023-01-19T14:51:26.665Z,96312.69
2023-01-19T14:53:58.617Z,96316.00
2023-01-19T14:56:31.517Z,96316.97
2023-01-19T14:59:01.045Z,96317.31
2023-01-19T15:01:28.989Z,96318.50
2023-01-19T15:03:57.486Z,96312.09
2023-01-19T15:06:26.502Z,96306.16
2023-01-19T15:08:54.242Z,96297.50
2023-01-19T15:11:32.616Z,96301.50
2023-01-19T15:14:00.195Z,96297.84
2023-01-19T15:16:29.894Z,96308.47
2023-01-19T15:18:56.891Z,96305.84
2023-01-19T15:21:26.481Z,96309.16
2023-01-19T15:23:54.737Z,96319.38
2023-01-19T15:26:24.302Z,96306.81
2023-01-19T15:28:52.063Z,96320.78
2023-01-19T15:31:24.326Z,96318.88
2023-01-19T15:33:51.611Z,96324.69
2023-01-19T15:36:20.429Z,96308.28
2023-01-19T15:38:50.853Z,96314.22
2023-01-19T15:41:29.938Z,96304.97
2023-01-19T15:43:57.919Z,96301.63
2023-01-19T15:46:25.911Z,96311.03
2023-01-19T15:48:53.706Z,96311.47
2023-01-19T15:51:23.207Z,96315.63
2023-01-19T15:53:50.506Z,96316.44
2023-01-19T15:56:19.619Z,96337.16
2023-01-19T15:58:46.927Z,96322.56
2023-01-19T16:01:15.924Z,96333.84
2023-01-19T16:03:43.258Z,96312.97
2023-01-19T16:06:10.554Z,96314.22
2023-01-19T16:08:38.155Z,96344.25
2023-01-19T16:11:13.654Z,96346.00
2023-01-19T16:13:40.788Z,96337.69
2023-01-19T16:16:13.873Z,96340.06
2023-01-19T16:18:41.016Z,96332.16
2023-01-19T16:21:07.980Z,96345.66
2023-01-19T16:23:34.907Z,96345.63
2023-01-19T16:26:05.074Z,96361.41
2023-01-19T16:28:32.049Z,96354.78
2023-01-19T16:30:58.968Z,96380.94
2023-01-19T16:33:25.919Z,96366.56
2023-01-19T16:35:53.318Z,96372.94
2023-01-19T16:38:22.689Z,96366.56
2023-01-19T16:40:49.701Z,96367.00
2023-01-19T16:43:16.629Z,96378.25
2023-01-19T16:46:01.377Z,96372.63
2023-01-19T16:48:28.996Z,96348.63
2023-01-19T16:51:00.365Z,96365.41
2023-01-19T16:53:28.041Z,96353.53
2023-01-19T16:55:55.207Z,96370.19
2023-01-19T16:58:22.448Z,96376.25
2023-01-19T17:00:49.810Z,96378.97
2023-01-19T17:03:17.111Z,96388.09
2023-01-19T17:05:49.491Z,96392.88
2023-01-19T17:08:18.961Z,96368.94
2023-01-19T17:10:47.300Z,96379.13
2023-01-19T17:13:14.295Z,96383.31
2023-01-19T17:15:41.304Z,96365.59
2023-01-19T17:18:10.221Z,96385.06
2023-01-19T17:20:37.337Z,96383.31
2023-01-19T17:23:04.401Z,96384.03
2023-01-19T17:25:31.399Z,96312.16
2023-01-19T17:28:01.456Z,96371.84
2023-01-19T17:30:28.787Z,96379.13
2023-01-19T17:32:55.984Z,96403.09
2023-01-19T17:35:23.134Z,96402.44
2023-01-19T17:37:54.169Z,96394.94
2023-01-19T17:40:21.206Z,96376.66
2023-01-19T17:42:48.241Z,96402.44
2023-01-19T17:45:15.270Z,96383.63
2023-01-19T17:47:42.166Z,96379.34
2023-01-19T17:50:10.090Z,96395.47
2023-01-19T17:52:38.074Z,96387.47
2023-01-19T17:55:05.420Z,96402.38
2023-01-19T17:57:32.341Z,96402.25
2023-01-19T17:59:59.500Z,96399.53
2023-01-19T18:02:26.484Z,96403.50
2023-01-19T18:04:53.491Z,96394.16
2023-01-19T18:07:20.587Z,96390.81
2023-01-19T18:09:47.547Z,96376.34
2023-01-19T18:12:14.481Z,96387.88
2023-01-19T18:14:41.633Z,96374.84
2023-01-19T18:17:08.738Z,96394.44
2023-01-19T18:19:35.769Z,96389.25
2023-01-19T18:22:02.808Z,96389.34
2023-01-19T18:24:29.731Z,96377.38
2023-01-19T18:26:56.733Z,96370.47
2023-01-19T18:29:23.810Z,96368.72
2023-01-19T18:31:50.790Z,96355.59
2023-01-19T18:34:17.881Z,96353.44
2023-01-19T18:36:44.907Z,96347.31
2023-01-19T18:39:12.103Z,96353.72
2023-01-19T18:41:41.872Z,96347.19
2023-01-19T18:44:09.933Z,96349.38
2023-01-19T18:46:37.699Z,96337.94
2023-01-19T18:49:05.513Z,96352.94
2023-01-19T18:51:32.571Z,96363.34
2023-01-19T18:53:59.713Z,96364.50
2023-01-19T18:56:26.895Z,96349.63
2023-01-19T18:58:54.199Z,96348.59
2023-01-19T19:01:27.065Z,96370.44
2023-01-19T19:03:57.207Z,96363.47
2023-01-19T19:06:27.069Z,96354.94
2023-01-19T19:08:56.118Z,96365.00
2023-01-19T19:11:24.638Z,96354.50
2023-01-19T19:14:00.217Z,96375.63
2023-01-19T19:16:28.950Z,96347.84
2023-01-19T19:18:56.398Z,96356.28
2023-01-19T19:21:25.320Z,96392.06
2023-01-19T19:23:54.961Z,96369.59
2023-01-19T19:26:23.818Z,96314.34
2023-01-19T19:28:50.760Z,96354.16
2023-01-19T19:31:20.908Z,96367.53
2023-01-19T19:33:51.003Z,96356.69
2023-01-19T19:36:20.009Z,96357.13
2023-01-19T19:38:52.220Z,96345.03
2023-01-19T19:41:23.005Z,96321.13
2023-01-19T19:43:50.815Z,96337.53
2023-01-19T19:46:26.317Z,96334.13
2023-01-19T19:48:54.439Z,96341.69
2023-01-19T19:51:27.543Z,96319.88
2023-01-19T19:53:56.856Z,96310.72
2023-01-19T19:56:25.909Z,96333.41
2023-01-19T19:58:55.808Z,96328.59
2023-01-19T20:01:28.512Z,96314.97
2023-01-19T20:03:57.617Z,96237.59
2023-01-19T20:06:26.023Z,96298.22
2023-01-19T20:08:55.388Z,96326.00
2023-01-19T20:11:27.444Z,96325.91
2023-01-19T20:13:54.793Z,96305.41
2023-01-19T20:16:23.331Z,96299.38
2023-01-19T20:18:54.450Z,96301.34
2023-01-19T20:21:27.547Z,96270.88
2023-01-19T20:23:56.814Z,96239.16
2023-01-19T20:26:27.234Z,96350.53
2023-01-19T20:28:56.926Z,96259.03
2023-01-19T20:31:27.334Z,96329.94
2023-01-19T20:33:56.506Z,96344.53
2023-01-19T20:36:24.606Z,96307.69
2023-01-19T20:38:54.247Z,96344.09
2023-01-19T20:41:22.596Z,96325.38
2023-01-19T20:43:50.645Z,96342.31
2023-01-19T20:46:18.495Z,96348.06
2023-01-19T20:48:50.973Z,96313.31
2023-01-19T20:51:19.102Z,96314.22
2023-01-19T20:53:46.877Z,96358.75
2023-01-19T20:56:15.609Z,96346.91
2023-01-19T20:58:43.061Z,96324.94
2023-01-19T21:01:21.902Z,96363.03
2023-01-19T21:03:49.322Z,96354.72
2023-01-19T21:06:16.846Z,96353.56
2023-01-19T21:08:44.399Z,96360.63
2023-01-19T21:11:13.230Z,96365.84
2023-01-19T21:13:40.193Z,96354.91
2023-01-19T21:16:07.922Z,96346.69
2023-01-19T21:18:38.093Z,96349.19
2023-01-19T21:21:05.047Z,96349.19
2023-01-19T21:23:32.054Z,96370.63
2023-01-19T21:26:00.090Z,96328.16
2023-01-19T21:28:28.699Z,96338.13
2023-01-19T21:30:56.314Z,96344.59
2023-01-19T21:33:23.516Z,96334.63
2023-01-19T21:35:55.454Z,96357.19
2023-01-19T21:38:24.928Z,96366.69
2023-01-19T21:40:51.853Z,96353.38
2023-01-19T21:43:20.147Z,96341.16
2023-01-19T21:45:48.580Z,96352.72
2023-01-19T21:48:17.349Z,96347.44
2023-01-19T21:50:44.692Z,96347.44
2023-01-19T21:53:12.004Z,96324.72
2023-01-19T21:55:44.624Z,96337.41
2023-01-19T21:58:11.507Z,96319.41
2023-01-19T22:00:38.487Z,96348.97
2023-01-19T22:03:05.495Z,96336.78
2023-01-19T22:05:37.176Z,96319.28
2023-01-19T22:08:06.377Z,96324.63
2023-01-19T22:10:37.724Z,96323.88
2023-01-19T22:13:06.720Z,96316.81
2023-01-19T22:15:33.851Z,96327.41
2023-01-19T22:18:00.853Z,96314.19
2023-01-19T22:20:28.147Z,96307.13
2023-01-19T22:22:56.053Z,96310.78
2023-01-19T22:25:27.683Z,96321.91
2023-01-19T22:27:55.814Z,96326.91
2023-01-19T22:30:22.789Z,96309.75
2023-01-19T22:32:49.886Z,96288.66
2023-01-19T22:35:17.025Z,96304.56
2023-01-19T22:37:43.901Z,96301.47
2023-01-19T22:40:11.645Z,96293.63
2023-01-19T22:42:39.281Z,96301.84
2023-01-19T22:45:06.742Z,96303.34
2023-01-19T22:47:33.769Z,96291.38
2023-01-19T22:50:00.687Z,96289.91
2023-01-19T22:52:27.514Z,96290.75
2023-01-19T22:54:56.438Z,96275.34
2023-01-19T22:57:23.330Z,96277.84
2023-01-19T22:59:50.189Z,96265.69
2023-01-19T23:02:18.631Z,96263.94
2023-01-19T23:04:47.429Z,96245.91
2023-01-19T23:07:14.353Z,96261.44
2023-01-19T23:09:41.275Z,96256.97
2023-01-19T23:12:08.124Z,96253.72
2023-01-19T23:14:36.322Z,96236.59
2023-01-19T23:17:03.275Z,96234.28
2023-01-19T23:19:30.305Z,96232.91
2023-01-19T23:21:57.350Z,96231.44
2023-01-19T23:24:24.193Z,96231.03
2023-01-19T23:26:51.299Z,96234.88
2023-01-19T23:29:18.398Z,96231.25
2023-01-19T23:31:47.855Z,96233.00
2023-01-19T23:34:14.883Z,96211.03
2023-01-19T23:36:43.221Z,96224.38
2023-01-19T23:39:16.597Z,96214.09
2023-01-19T23:41:43.973Z,96210.66
2023-01-19T23:44:10.799Z,96211.94
2023-01-19T23:46:38.602Z,96215.84
2023-01-19T23:49:05.547Z,96206.75
2023-01-19T23:51:33.334Z,96201.69
2023-01-19T23:54:00.825Z,96196.75
2023-01-19T23:56:30.320Z,96194.34
2023-01-19T23:59:03.942Z,96203.38
